CheckWX is a tool to help pilots better visualize weather data.  It is not intended as a substitute for an official pre-flight weather briefing.

05:18:52 UTC

KAST METAR
Astoria Regional Airport
Astoria, Oregon, USA
Current

24 mins ago

KAST 200455Z AUTO 32012G17KT 4SM -RA BR BKN016 OVC025 06/04 A2994 RMK AO2 RAB05E16B52 SLP139 P0000 T00610044
Observed
Feb-20 @ 04:55 UTC
Wind
  • 320° at 12 KTS
  • Gusting to 17 KTS
Visibility
6,437 meters
Flight Rules
MVFR
Conditions
Light Rain, Mist
Cloud Levels
  • Broken at 1,600' AGL
  • Overcast at 2,500' AGL
Temperature
C / 43°F
Dewpoint
C / 39°F
Humidity
87%
Altimeter
29.94" Hg
Pressure
1013.9 hPa
Current Rain
0.01"
Previous

41 mins ago

KAST 200438Z AUTO 31010KT 10SM SCT015 BKN025 OVC036 06/05 A2995 RMK AO2 RAB05E16 P0000 T00610050
Observed
Feb-20 @ 04:38 UTC
Wind
  • 310° at 10 KTS
Visibility
16,093 meters
Flight Rules
MVFR
Cloud Levels
  • Scattered at 1,500' AGL
  • Broken at 2,500' AGL
  • Overcast at 3,600' AGL
Temperature
C / 43°F
Dewpoint
C / 41°F
Humidity
93%
Altimeter
29.95" Hg
Pressure
1014.22 hPa
Current Rain
0.01"
Previous

1 hour ago

KAST 200355Z AUTO 29008KT 10SM FEW021 SCT027 BKN040 06/05 A2995 RMK AO2 RAB0257E33 SLP143 P0001 T00610050
Observed
Feb-20 @ 03:55 UTC
Wind
  • 290° at 8 KTS
Visibility
16,093 meters
Flight Rules
VFR
Cloud Levels
  • Few at 2,100' AGL
  • Scattered at 2,700' AGL
  • Broken at 4,000' AGL
Temperature
C / 43°F
Dewpoint
C / 41°F
Humidity
93%
Altimeter
29.95" Hg
Pressure
1014.3 hPa
Current Rain
0.01"